Create Custom Reports and Graphics: Custom Report

Kelseyville Remote

Current Conditions

8/9/22 3:45 AM (-07:00)
Updated Every 15 Minutes
Temp 51.2 °F   2.6
RH 78 %   0
Dew Pt 44.5 °F   2.5
Wet Bulb 48.2 °F   2.5
BatVolt 12.8 V   0.0
Monthly Rain 0.00 In
Seasonal Rainfall 0.00 In

Today & Yesterday

Kelseyville Remote

8/9/22 3:45 AM (-07:00)
Updated Every 15 Minutes
Daily Max Temp 57.6 °F   1.5
Time of Max Temp 0101
Daily Min Temp 51.1 °F   2.4
Time of Min Temp 0345
Daily Rain 0.00 In
Yest MaxT 92.0 °F
Yest MinT 48.1 °F
Yest Rain 0.00 In

Last 7 Days

Kelseyville Remote

Hourly Data | America/Los_Angeles
as of 8/9/22 4:00 AM PDT
Date & Time Temp (°F) RH (%) Dew Pt (°F) Wet Bulb (°F) Heat Index (°F) BatVolt (V) Latest Rain (In) Daily Rain (In) Daily Min Temp (°F) Daily Max Temp (°F)
8/9/22 - 0300 53.5 73 45.2 49.7 - 12.9 0.00 0.00 52.4 57.6
8/9/22 - 0200 55.9 72 47.0 51.7 - 12.9 0.00 0.00 54.4 57.6
8/9/22 - 0100 59.7 66 48.3 53.9 - 13.0 0.00 0.00 48.1 92.0
8/9/22 - 0000 62.4 61 48.6 55.0 - 13.0 0.00 0.00 48.1 92.0
8/8/22 - 2300 64.7 57 49.2 56.1 - 13.0 0.00 0.00 48.1 92.0
8/8/22 - 2200 68.9 52 50.3 58.0 - 13.0 0.00 0.00 48.1 92.0
8/8/22 - 2100 74.7 43 50.5 59.7 - 13.1 0.00 0.00 48.1 92.0
8/8/22 - 2000 82.2 34 50.9 61.5 - 13.2 0.00 0.00 48.1 92.0
8/8/22 - 1900 86.9 27 49.0 61.4 - 13.4 0.00 0.00 48.1 92.0
8/8/22 - 1800 89.9 23 47.3 61.1 - 13.4 0.00 0.00 48.1 92.0
8/8/22 - 1700 90.8 21 45.8 60.7 - 13.4 0.00 0.00 48.1 92.0
8/8/22 - 1600 90.1 21 45.0 60.2 - 13.4 0.00 0.00 48.1 91.0
8/8/22 - 1500 89.3 22 45.4 60.2 - 13.4 0.00 0.00 48.1 90.3
8/8/22 - 1400 88.4 24 47.2 60.9 - 13.4 0.00 0.00 48.1 89.9
8/8/22 - 1300 84.2 30 49.0 61.0 - 13.5 0.00 0.00 48.1 87.4
8/8/22 - 1200 80.3 37 51.4 61.4 - 13.5 0.00 0.00 48.1 82.0
8/8/22 - 1100 76.4 45 53.2 61.6 - 13.6 0.00 0.00 48.1 79.2
8/8/22 - 1000 74.0 47 52.3 60.6 - 13.6 0.00 0.00 48.1 75.9
8/8/22 - 0900 68.4 49 48.6 57.0 - 13.7 0.00 0.00 48.1 71.3
8/8/22 - 0800 60.9 58 46.0 53.0 - 13.8 0.00 0.00 48.1 67.3
8/8/22 - 0700 49.7 79 43.6 47.1 - 13.0 0.00 0.00 48.1 59.1
8/8/22 - 0600 49.8 82 44.6 47.6 - 12.8 0.00 0.00 49.2 59.1
8/8/22 - 0500 51.0 81 45.5 48.7 - 12.8 0.00 0.00 50.1 59.1
8/8/22 - 0400 53.6 78 46.8 50.6 - 12.8 0.00 0.00 52.4 59.1
8/8/22 - 0300 55.5 74 47.4 51.7 - 12.9 0.00 0.00 53.7 59.1
8/8/22 - 0200 58.0 72 49.0 53.6 - 12.9 0.00 0.00 56.9 59.1
8/8/22 - 0100 60.4 69 50.0 55.1 - 13.0 0.00 0.00 49.7 92.2
8/8/22 - 0000 62.6 65 50.8 56.4 - 13.0 0.00 0.00 49.7 92.2
8/7/22 - 2300 66.2 59 51.6 58.0 - 13.0 0.00 0.00 49.7 92.2
8/7/22 - 2200 69.2 55 52.2 59.2 - 13.0 0.00 0.00 49.7 92.2
8/7/22 - 2100 73.9 47 52.7 60.8 - 13.1 0.00 0.00 49.7 92.2
8/7/22 - 2000 81.2 37 52.6 62.2 - 13.2 0.00 0.00 49.7 92.2
8/7/22 - 1900 86.3 27 48.7 61.2 - 13.4 0.00 0.00 49.7 92.2
8/7/22 - 1800 89.2 23 46.4 60.6 - 13.4 0.00 0.00 49.7 92.2
8/7/22 - 1700 91.1 22 47.5 61.4 - 13.4 0.00 0.00 49.7 92.2
8/7/22 - 1600 90.8 22 47.3 61.3 - 13.4 0.00 0.00 49.7 91.9
8/7/22 - 1500 89.6 23 46.5 60.7 - 13.4 0.00 0.00 49.7 91.9
8/7/22 - 1400 88.3 24 47.0 60.8 - 13.4 0.00 0.00 49.7 91.9
8/7/22 - 1300 89.4 24 47.8 61.3 - 13.4 0.00 0.00 49.7 91.9
8/7/22 - 1200 82.5 39 55.2 64.0 - 13.5 0.00 0.00 49.7 86.3
8/7/22 - 1100 77.7 48 56.2 63.7 - 13.6 0.00 0.00 49.7 80.6
8/7/22 - 1000 76.1 43 51.8 60.8 - 13.6 0.00 0.00 49.7 77.4
8/7/22 - 0900 70.5 40 45.2 55.8 - 13.7 0.00 0.00 49.7 74.3
8/7/22 - 0800 62.4 47 41.5 51.3 - 13.8 0.00 0.00 49.7 65.8
8/7/22 - 0700 51.5 66 40.6 46.4 - 12.9 0.00 0.00 49.7 59.7
8/7/22 - 0600 50.9 71 41.9 46.8 - 12.8 0.00 0.00 50.0 59.7
8/7/22 - 0500 52.5 69 42.7 47.9 - 12.8 0.00 0.00 51.4 59.7
8/7/22 - 0400 53.8 67 43.2 48.8 - 12.9 0.00 0.00 53.1 59.7
8/7/22 - 0300 55.7 67 44.8 50.4 - 12.9 0.00 0.00 54.8 59.7
8/7/22 - 0200 58.7 57 43.6 51.0 - 12.9 0.00 0.00 57.6 59.7
8/7/22 - 0100 60.7 56 45.0 52.4 - 12.9 0.00 0.00 54.2 93.2
8/7/22 - 0000 62.2 57 46.7 53.9 - 13.0 0.00 0.00 54.2 93.2
8/6/22 - 2300 65.9 53 48.0 55.8 - 13.0 0.00 0.00 54.2 93.2
8/6/22 - 2200 69.8 48 49.2 57.7 - 13.0 0.00 0.00 54.2 93.2
8/6/22 - 2100 74.2 42 49.6 59.1 - 13.1 0.00 0.00 54.2 93.2
8/6/22 - 2000 81.3 33 49.2 60.5 - 13.2 0.00 0.00 54.2 93.2
8/6/22 - 1900 86.8 24 45.8 60.0 - 13.4 0.00 0.00 54.2 93.2
8/6/22 - 1800 88.8 22 45.3 60.1 - 13.4 0.00 0.00 54.2 93.2
8/6/22 - 1700 90.1 23 47.1 61.1 - 13.4 0.00 0.00 54.2 93.2
8/6/22 - 1600 91.0 24 48.9 62.0 - 13.4 0.00 0.00 54.2 93.2
8/6/22 - 1500 92.2 19 44.4 60.4 - 13.4 0.00 0.00 54.2 93.2
8/6/22 - 1400 90.3 16 38.3 57.9 - 13.4 0.00 0.00 54.2 92.0
8/6/22 - 1300 86.7 24 45.5 59.8 - 13.4 0.00 0.00 54.2 88.4
8/6/22 - 1200 81.8 38 53.3 63.0 - 13.5 0.00 0.00 54.2 84.7
8/6/22 - 1100 75.8 53 57.4 64.2 - 13.6 0.00 0.00 54.2 77.9
8/6/22 - 1000 72.1 56 55.7 62.2 - 13.6 0.00 0.00 54.2 73.4
8/6/22 - 0900 69.1 58 53.6 60.1 - 13.7 0.00 0.00 54.2 70.6
8/6/22 - 0800 64.4 63 51.4 57.3 - 13.8 0.00 0.00 54.2 67.6
8/6/22 - 0700 56.3 78 49.5 53.3 - 13.0 0.00 0.00 54.2 61.9
8/6/22 - 0600 56.0 80 50.0 53.4 - 12.8 0.00 0.00 55.0 61.9
8/6/22 - 0500 57.0 79 50.5 54.2 - 12.8 0.00 0.00 56.1 61.9
8/6/22 - 0400 57.9 76 50.4 54.4 - 12.9 0.00 0.00 57.0 61.9
8/6/22 - 0300 59.6 76 52.0 56.1 - 12.9 0.00 0.00 58.1 61.9
8/6/22 - 0200 61.3 74 53.1 57.4 - 12.9 0.00 0.00 60.6 61.9
8/6/22 - 0100 62.4 74 54.1 58.4 - 12.9 0.00 0.00 57.7 93.8
8/6/22 - 0000 63.6 75 55.5 59.7 - 13.0 0.00 0.00 57.7 93.8
8/5/22 - 2300 66.7 68 55.6 60.7 - 13.0 0.00 0.00 57.7 93.8
8/5/22 - 2200 69.9 62 56.6 62.2 - 13.0 0.00 0.00 57.7 93.8
8/5/22 - 2100 72.8 57 56.8 63.1 - 13.0 0.00 0.00 57.7 93.8
8/5/22 - 2000 78.4 48 57.1 64.4 - 13.3 0.00 0.00 57.7 93.8
8/5/22 - 1900 82.3 41 56.1 64.5 - 13.4 0.00 0.00 57.7 93.8
8/5/22 - 1800 85.5 36 55.5 64.6 - 13.4 0.00 0.00 57.7 93.8
8/5/22 - 1700 88.6 32 54.9 64.7 - 13.4 0.00 0.00 57.7 93.8
8/5/22 - 1600 90.6 30 54.5 64.7 - 13.4 0.00 0.00 57.7 93.8
8/5/22 - 1500 92.5 28 54.3 64.8 - 13.4 0.00 0.00 57.7 93.8
8/5/22 - 1400 90.7 28 53.3 64.1 - 13.4 0.00 0.00 57.7 92.1
8/5/22 - 1300 88.1 26 48.3 61.4 - 13.4 0.00 0.00 57.7 89.6
8/5/22 - 1200 84.7 22 41.6 57.8 - 13.4 0.00 0.00 57.7 87.2
8/5/22 - 1100 81.0 23 39.0 56.1 - 13.5 0.00 0.00 57.7 82.8
8/5/22 - 1000 79.9 19 34.4 54.2 - 13.5 0.00 0.00 57.7 81.1
8/5/22 - 0900 76.7 26 38.8 54.9 - 13.6 0.00 0.00 57.7 79.6
8/5/22 - 0800 68.9 35 39.8 52.9 - 13.7 0.00 0.00 57.7 73.7
8/5/22 - 0700 58.6 55 42.6 50.4 - 12.9 0.00 0.00 57.7 65.0
8/5/22 - 0600 60.1 50 41.5 50.5 - 12.8 0.00 0.00 58.3 65.0
8/5/22 - 0500 60.9 49 41.7 50.9 - 12.8 0.00 0.00 60.2 65.0
8/5/22 - 0400 62.2 50 43.3 52.2 - 12.8 0.00 0.00 61.1 65.0
8/5/22 - 0300 62.4 48 42.3 51.7 - 12.9 0.00 0.00 61.9 65.0
8/5/22 - 0200 63.3 49 43.9 52.9 - 12.9 0.00 0.00 62.1 65.0
8/5/22 - 0100 65.9 43 42.5 53.1 - 12.9 0.00 0.00 61.1 99.7
8/5/22 - 0000 68.2 38 41.7 53.5 - 12.9 0.00 0.00 61.1 99.7
8/4/22 - 2300 71.2 37 43.2 55.1 - 12.9 0.00 0.00 61.1 99.7
8/4/22 - 2200 76.8 28 41.5 55.9 - 13.0 0.00 0.00 61.1 99.7
8/4/22 - 2100 81.4 27 43.7 58.0 - 13.0 0.00 0.00 61.1 99.7
8/4/22 - 2000 88.7 21 43.8 59.5 - 13.2 0.00 0.00 61.1 99.7
8/4/22 - 1900 92.4 19 44.8 60.5 - 13.3 0.00 0.00 61.1 99.7
8/4/22 - 1800 95.3 20 47.6 62.0 - 13.3 0.00 0.00 61.1 99.7
8/4/22 - 1700 97.7 18 46.2 61.8 - 13.3 0.00 0.00 61.1 99.7
8/4/22 - 1600 98.8 14 41.9 60.4 - 13.3 0.00 0.00 61.1 99.7
8/4/22 - 1500 97.9 17 45.3 61.4 - 13.3 0.00 0.00 61.1 99.5
8/4/22 - 1400 98.5 20 50.5 63.6 - 13.3 0.00 0.00 61.1 99.5
8/4/22 - 1300 97.1 26 56.4 66.4 - 13.3 0.00 0.00 61.1 99.4
8/4/22 - 1200 91.7 33 58.5 67.1 - 13.4 0.00 0.00 61.1 94.1
8/4/22 - 1100 87.6 38 59.0 67.1 - 13.4 0.00 0.00 61.1 89.4
8/4/22 - 1000 84.0 43 59.3 66.8 - 13.5 0.00 0.00 61.1 85.0
8/4/22 - 0900 81.1 40 54.3 63.2 - 13.6 0.00 0.00 61.1 83.4
8/4/22 - 0800 74.6 48 53.3 61.2 - 13.7 0.00 0.00 61.1 81.0
8/4/22 - 0700 62.8 67 51.6 56.9 - 12.9 0.00 0.00 61.1 68.7
8/4/22 - 0600 61.9 69 51.7 56.7 - 12.8 0.00 0.00 61.3 68.7
8/4/22 - 0500 63.0 65 51.2 56.8 - 12.9 0.00 0.00 62.7 68.7
8/4/22 - 0400 64.2 63 51.4 57.3 - 12.9 0.00 0.00 63.3 68.7
8/4/22 - 0300 65.6 62 52.4 58.4 - 12.9 0.00 0.00 64.7 68.7
8/4/22 - 0200 67.6 58 52.4 58.9 - 12.9 0.00 0.00 66.6 68.7
8/4/22 - 0100 69.4 55 52.5 59.5 - 13.0 0.00 0.00 63.3 101.4
8/4/22 - 0000 71.6 51 52.5 60.1 - 13.0 0.00 0.00 63.3 101.4
8/3/22 - 2300 75.1 46 52.6 61.0 - 13.0 0.00 0.00 63.3 101.4
8/3/22 - 2200 78.1 42 53.2 62.0 - 13.0 0.00 0.00 63.3 101.4
8/3/22 - 2100 84.7 33 52.7 62.9 - 13.1 0.00 0.00 63.3 101.4
8/3/22 - 2000 91.9 27 53.3 64.2 - 13.2 0.00 0.00 63.3 101.4
8/3/22 - 1900 95.1 26 54.4 65.2 - 13.3 0.00 0.00 63.3 101.4
8/3/22 - 1800 99.1 22 53.8 65.2 - 13.3 0.00 0.00 63.3 101.4
8/3/22 - 1700 100.5 20 52.6 64.7 - 13.3 0.00 0.00 63.3 101.4
8/3/22 - 1600 99.9 22 54.1 65.4 - 13.3 0.00 0.00 63.3 101.0
8/3/22 - 1500 96.5 26 56.4 66.3 - 13.3 0.00 0.00 63.3 99.2
8/3/22 - 1400 94.4 28 56.5 66.2 - 13.4 0.00 0.00 63.3 96.1
8/3/22 - 1300 92.4 30 56.2 65.8 - 13.4 0.00 0.00 63.3 94.5
8/3/22 - 1200 87.1 37 57.3 65.9 - 13.4 0.00 0.00 63.3 90.9
8/3/22 - 1100 83.4 39 55.7 64.4 - 13.5 0.00 0.00 63.3 85.0
8/3/22 - 1000 81.0 42 55.4 63.9 - 13.5 0.00 0.00 63.3 83.1
8/3/22 - 0900 77.5 43 53.1 61.8 - 13.6 0.00 0.00 63.3 82.7
8/3/22 - 0800 68.1 57 52.3 59.0 - 13.7 0.00 0.00 63.3 72.8
8/3/22 - 0700 64.2 64 51.8 57.5 - 12.9 0.00 0.00 63.3 67.6
8/3/22 - 0600 63.8 65 51.9 57.5 - 12.9 0.00 0.00 63.3 67.6
8/3/22 - 0500 64.0 62 50.8 56.9 - 12.9 0.00 0.00 63.3 67.6
8/3/22 - 0400 63.9 64 51.4 57.2 - 12.9 0.00 0.00 63.3 67.6
8/3/22 - 0300 65.3 61 51.7 57.8 - 12.9 0.00 0.00 64.3 67.6
8/3/22 - 0200 66.4 59 51.8 58.2 - 12.9 0.00 0.00 65.8 67.6
8/3/22 - 0100 68.8 54 51.7 58.8 - 13.0 0.00 0.00 59.4 98.4
8/3/22 - 0000 71.5 49 51.4 59.4 - 13.0 0.00 0.00 59.4 98.4
8/2/22 - 2300 73.2 46 51.2 59.7 - 13.0 0.00 0.00 59.4 98.4
8/2/22 - 2200 75.4 45 52.3 60.9 - 13.0 0.00 0.00 59.4 98.4
8/2/22 - 2100 81.9 36 52.4 62.3 - 13.1 0.00 0.00 59.4 98.4
8/2/22 - 2000 87.6 32 54.2 64.2 - 13.1 0.00 0.00 59.4 98.4
8/2/22 - 1900 91.5 27 53.3 64.2 - 13.3 0.00 0.00 59.4 98.4
8/2/22 - 1800 95.2 24 53.2 64.5 - 13.3 0.00 0.00 59.4 98.4
8/2/22 - 1700 96.1 24 53.7 64.9 - 13.3 0.00 0.00 59.4 98.4
8/2/22 - 1600 97.7 22 52.4 64.4 - 13.3 0.00 0.00 59.4 98.4
8/2/22 - 1500 95.4 29 57.7 67.0 - 13.3 0.00 0.00 59.4 96.9
8/2/22 - 1400 93.9 30 57.3 66.6 - 13.4 0.00 0.00 59.4 96.2
8/2/22 - 1300 89.6 37 60.2 68.0 - 13.4 0.00 0.00 59.4 92.1
8/2/22 - 1200 85.9 44 61.2 68.3 - 13.4 0.00 0.00 59.4 87.8
8/2/22 - 1100 83.0 51 62.9 69.1 84.0 13.5 0.00 0.00 59.4 84.3
8/2/22 - 1000 79.6 57 62.8 68.6 - 13.5 0.00 0.00 59.4 81.1
8/2/22 - 0900 72.7 62 59.1 64.6 - 13.6 0.00 0.00 59.4 77.3
8/2/22 - 0800 66.3 73 57.2 61.7 - 13.9 0.00 0.00 59.4 68.5
8/2/22 - 0700 61.1 84 56.2 59.4 - 13.1 0.00 0.00 59.4 64.8
8/2/22 - 0600 59.8 86 55.6 58.5 - 12.9 0.00 0.00 59.4 64.3
8/2/22 - 0500 60.2 85 55.8 58.8 - 12.9 0.00 0.00 59.9 64.3
Max 100.5 86 62.9 69.1 - 13.9 0.00 0.00 66.6 101.4
Avg 75.7 45 50.2 59.2 - 13.2 0.00 - - -
Min 49.7 14 34.4 46.4 - 12.8 0.00 0.00 48.1 57.6
Total - - - - - - 0.00 - - -